createdAt,value
2019-04-30T00:00:58.628Z,6.70
2019-04-30T00:03:35.099Z,6.70
2019-04-30T00:06:07.493Z,6.60
2019-04-30T00:08:39.232Z,6.60
2019-04-30T00:11:10.778Z,6.60
2019-04-30T00:13:43.469Z,6.60
2019-04-30T00:16:18.958Z,6.50
2019-04-30T00:18:59.848Z,6.50
2019-04-30T00:21:26.233Z,6.50
2019-04-30T00:24:00.728Z,6.40
2019-04-30T00:26:31.213Z,6.40
2019-04-30T00:29:02.117Z,6.40
2019-04-30T00:31:34.837Z,6.40
2019-04-30T00:34:05.099Z,6.30
2019-04-30T00:36:37.507Z,6.30
2019-04-30T00:39:13.344Z,6.30
2019-04-30T00:41:45.897Z,6.30
2019-04-30T00:44:15.194Z,6.30
2019-04-30T00:46:48.067Z,6.30
2019-04-30T00:49:22.867Z,6.30
2019-04-30T00:51:56.682Z,6.30
2019-04-30T00:54:22.505Z,6.30
2019-04-30T00:56:57.512Z,6.20
2019-04-30T00:59:26.922Z,6.20
2019-04-30T01:02:19.924Z,6.10
2019-04-30T01:04:51.648Z,6.00
2019-04-30T01:07:22.365Z,6.00
2019-04-30T01:09:52.273Z,6.00
2019-04-30T01:12:25.288Z,6.00
2019-04-30T01:14:55.837Z,5.90
2019-04-30T01:17:26.567Z,5.90
2019-04-30T01:19:56.409Z,5.90
2019-04-30T01:22:31.112Z,5.90
2019-04-30T01:25:02.839Z,5.90
2019-04-30T01:27:31.330Z,5.80
2019-04-30T01:30:03.110Z,5.80
2019-04-30T01:32:34.455Z,5.70
2019-04-30T01:35:06.276Z,5.70
2019-04-30T01:37:36.081Z,5.70
2019-04-30T01:40:13.577Z,5.70
2019-04-30T01:42:43.011Z,5.70
2019-04-30T01:45:10.406Z,5.70
2019-04-30T01:47:40.285Z,5.70
2019-04-30T01:50:10.156Z,5.70
2019-04-30T01:52:55.782Z,5.60
2019-04-30T01:55:29.375Z,5.60
2019-04-30T01:58:01.853Z,5.60
2019-04-30T02:00:39.166Z,5.50
2019-04-30T02:03:11.258Z,5.50
2019-04-30T02:05:41.088Z,5.50
2019-04-30T02:08:11.979Z,5.50
2019-04-30T02:10:43.331Z,5.50
2019-04-30T02:13:13.194Z,5.50
2019-04-30T02:15:43.970Z,5.40
2019-04-30T02:18:14.042Z,5.40
2019-04-30T02:20:43.854Z,5.40
2019-04-30T02:23:13.679Z,5.40
2019-04-30T02:25:45.776Z,5.30
2019-04-30T02:28:15.691Z,5.30
2019-04-30T02:30:46.535Z,5.20
2019-04-30T02:33:19.526Z,5.20
2019-04-30T02:35:55.041Z,5.20
2019-04-30T02:38:32.548Z,5.20
2019-04-30T02:41:03.334Z,5.20
2019-04-30T02:43:36.514Z,5.10
2019-04-30T02:46:06.683Z,5.10
2019-04-30T02:48:39.655Z,5.10
2019-04-30T02:51:14.055Z,5.00
2019-04-30T02:54:23.998Z,5.00
2019-04-30T02:56:54.381Z,5.00
2019-04-30T02:59:24.192Z,5.00
2019-04-30T03:01:54.003Z,5.00
2019-04-30T03:04:23.900Z,5.00
2019-04-30T03:06:53.702Z,5.00
2019-04-30T03:09:24.789Z,5.00
2019-04-30T03:11:54.593Z,4.90
2019-04-30T03:14:25.020Z,4.90
2019-04-30T03:16:56.418Z,5.00
2019-04-30T03:19:30.586Z,4.90
2019-04-30T03:22:10.409Z,4.90
2019-04-30T03:24:42.818Z,5.00
2019-04-30T03:27:14.434Z,5.00
2019-04-30T03:29:45.702Z,5.00
2019-04-30T03:32:22.288Z,5.00
2019-04-30T03:34:51.815Z,5.10
2019-04-30T03:37:21.282Z,5.10
2019-04-30T03:39:51.093Z,5.10
2019-04-30T03:42:20.902Z,5.20
2019-04-30T03:44:54.441Z,5.30
2019-04-30T03:47:24.216Z,5.40
2019-04-30T03:49:56.412Z,5.40
2019-04-30T03:52:29.221Z,5.50
2019-04-30T03:55:02.459Z,5.60
2019-04-30T03:57:30.998Z,5.70
2019-04-30T04:00:01.691Z,5.70
2019-04-30T04:02:35.605Z,5.80
2019-04-30T04:05:14.289Z,5.90
2019-04-30T04:07:53.122Z,6.00
2019-04-30T04:10:29.755Z,6.00
2019-04-30T04:13:00.652Z,6.10
2019-04-30T04:15:31.452Z,6.20
2019-04-30T04:18:01.796Z,6.30
2019-04-30T04:20:31.587Z,6.30
2019-04-30T04:23:02.730Z,6.40
2019-04-30T04:25:32.537Z,6.50
2019-04-30T04:28:04.272Z,6.60
2019-04-30T04:30:36.569Z,6.70
2019-04-30T04:33:10.079Z,6.70
2019-04-30T04:35:40.543Z,6.80
2019-04-30T04:38:12.779Z,6.90
2019-04-30T04:40:45.559Z,7.00
2019-04-30T04:43:15.357Z,7.10
2019-04-30T04:45:49.459Z,7.10
2019-04-30T04:48:19.754Z,7.20
2019-04-30T04:50:50.536Z,7.30
2019-04-30T04:53:20.428Z,7.40
2019-04-30T04:55:54.961Z,7.50
2019-04-30T04:58:31.128Z,7.60
2019-04-30T05:01:01.373Z,7.60
2019-04-30T05:03:39.864Z,7.70
2019-04-30T05:06:11.959Z,7.80
2019-04-30T05:08:43.419Z,7.90
2019-04-30T05:11:13.353Z,8.00
2019-04-30T05:13:44.139Z,8.00
2019-04-30T05:16:14.011Z,8.10
2019-04-30T05:18:43.851Z,8.20
2019-04-30T05:21:14.645Z,8.20
2019-04-30T05:23:45.743Z,8.30
2019-04-30T05:26:18.937Z,8.40
2019-04-30T05:28:52.511Z,8.50
2019-04-30T05:31:21.133Z,8.50
2019-04-30T05:33:51.043Z,8.60
2019-04-30T05:36:20.831Z,8.70
2019-04-30T05:38:51.875Z,8.70
2019-04-30T05:41:22.845Z,8.80
2019-04-30T05:43:53.763Z,8.90
2019-04-30T05:46:23.638Z,9.00
2019-04-30T05:48:53.997Z,9.10
2019-04-30T05:51:23.813Z,9.20
2019-04-30T05:53:53.701Z,9.30
2019-04-30T05:56:23.527Z,9.30
2019-04-30T05:58:53.670Z,9.40
2019-04-30T06:01:24.341Z,9.50
2019-04-30T06:03:54.319Z,9.60
2019-04-30T06:06:24.604Z,9.70
2019-04-30T06:09:04.674Z,9.80
2019-04-30T06:11:40.871Z,9.90
2019-04-30T06:14:28.633Z,9.90
2019-04-30T06:17:15.262Z,10.00
2019-04-30T06:19:45.120Z,10.10
2019-04-30T06:22:16.337Z,10.20
2019-04-30T06:24:46.166Z,10.30
2019-04-30T06:27:16.191Z,10.40
2019-04-30T06:29:46.311Z,10.50
2019-04-30T06:32:16.128Z,10.50
2019-04-30T06:34:46.172Z,10.60
2019-04-30T06:37:16.061Z,10.70
2019-04-30T06:39:46.000Z,10.90
2019-04-30T06:42:15.874Z,11.00
2019-04-30T06:44:45.820Z,11.20
2019-04-30T06:47:20.063Z,11.50
2019-04-30T06:49:50.571Z,11.80
2019-04-30T06:52:23.553Z,12.40
2019-04-30T06:54:52.666Z,13.20
2019-04-30T06:57:23.514Z,14.20
2019-04-30T06:59:53.682Z,15.10
2019-04-30T07:02:23.528Z,16.00
2019-04-30T07:04:53.338Z,16.70
2019-04-30T07:07:30.786Z,17.30
2019-04-30T07:10:01.179Z,17.90
2019-04-30T07:12:34.166Z,18.50
2019-04-30T07:15:08.603Z,18.90
2019-04-30T07:17:40.570Z,19.30
2019-04-30T07:20:10.429Z,19.70
2019-04-30T07:22:50.452Z,20.10
2019-04-30T07:25:12.696Z,20.40
2019-04-30T07:27:45.920Z,20.80
2019-04-30T07:30:15.835Z,21.00
2019-04-30T07:32:46.289Z,21.30
2019-04-30T07:35:16.098Z,21.50
2019-04-30T07:37:45.938Z,21.70
2019-04-30T07:40:19.007Z,21.90
2019-04-30T07:42:50.618Z,22.10
2019-04-30T07:45:25.186Z,22.30
2019-04-30T07:47:51.911Z,22.50
2019-04-30T07:50:22.553Z,22.60
2019-04-30T07:53:02.642Z,22.80
2019-04-30T07:55:25.106Z,23.00
2019-04-30T07:57:54.903Z,23.30
2019-04-30T08:00:24.711Z,23.50
2019-04-30T08:02:56.099Z,23.70
2019-04-30T08:05:29.871Z,23.80
2019-04-30T08:08:16.655Z,23.80
2019-04-30T08:10:33.769Z,23.90
2019-04-30T08:13:10.047Z,24.00
2019-04-30T08:15:36.628Z,24.00
2019-04-30T08:18:08.609Z,24.10
2019-04-30T08:20:39.301Z,24.10
2019-04-30T08:23:20.175Z,24.20
2019-04-30T08:25:40.922Z,24.20
2019-04-30T08:28:12.547Z,24.10
2019-04-30T08:30:43.278Z,24.10
2019-04-30T08:33:14.670Z,24.20
2019-04-30T08:35:50.002Z,24.30
2019-04-30T08:38:23.563Z,24.30
2019-04-30T08:40:58.124Z,24.50
2019-04-30T08:43:25.185Z,24.40
2019-04-30T08:45:55.109Z,24.30
2019-04-30T08:48:43.866Z,24.30
2019-04-30T08:51:01.331Z,24.20
2019-04-30T08:53:33.771Z,24.20
2019-04-30T08:56:02.634Z,24.10
2019-04-30T08:58:33.784Z,24.20
2019-04-30T09:01:08.833Z,24.20
2019-04-30T09:03:39.312Z,24.10
2019-04-30T09:06:10.744Z,24.20
2019-04-30T09:08:40.631Z,24.50
2019-04-30T09:11:22.574Z,24.50
2019-04-30T09:13:48.804Z,24.60
2019-04-30T09:16:22.169Z,24.80
2019-04-30T09:18:53.566Z,24.90
2019-04-30T09:21:23.674Z,25.20
2019-04-30T09:23:55.920Z,25.50
2019-04-30T09:26:29.046Z,25.60
2019-04-30T09:29:02.747Z,25.40
2019-04-30T09:31:32.561Z,25.10
2019-04-30T09:34:14.272Z,25.10
2019-04-30T09:36:34.331Z,25.00
2019-04-30T09:39:05.621Z,25.10
2019-04-30T09:41:36.760Z,25.30
2019-04-30T09:44:07.718Z,25.50
2019-04-30T09:46:39.009Z,25.60
2019-04-30T09:49:09.647Z,25.80
2019-04-30T09:51:40.065Z,25.80
2019-04-30T09:54:12.757Z,25.80
2019-04-30T09:56:42.294Z,25.80
2019-04-30T09:59:12.721Z,25.90
2019-04-30T10:01:42.535Z,26.10
2019-04-30T10:04:14.205Z,26.10
2019-04-30T10:06:44.273Z,26.10
2019-04-30T10:09:14.813Z,25.90
2019-04-30T10:12:00.999Z,25.90
2019-04-30T10:14:32.585Z,26.00
2019-04-30T10:17:18.877Z,26.00
2019-04-30T10:19:49.277Z,26.00
2019-04-30T10:22:19.108Z,25.90
2019-04-30T10:24:49.518Z,25.80
2019-04-30T10:27:19.512Z,25.90
2019-04-30T10:29:49.986Z,25.90
2019-04-30T10:32:19.794Z,25.90
2019-04-30T10:34:52.131Z,26.00
2019-04-30T10:37:23.417Z,26.00
2019-04-30T10:39:53.375Z,26.10
2019-04-30T10:42:24.182Z,26.00
2019-04-30T10:44:54.115Z,26.10
2019-04-30T10:47:24.947Z,26.10
2019-04-30T10:49:54.774Z,26.00
2019-04-30T10:52:24.591Z,26.10
2019-04-30T10:54:54.393Z,26.20
2019-04-30T10:57:24.368Z,26.30
2019-04-30T10:59:54.205Z,26.20
2019-04-30T11:02:24.042Z,26.20
2019-04-30T11:04:54.070Z,26.20
2019-04-30T11:07:23.886Z,26.20
2019-04-30T11:09:54.114Z,26.20
2019-04-30T11:12:23.909Z,26.30
2019-04-30T11:14:55.219Z,26.50
2019-04-30T11:17:26.742Z,26.70
2019-04-30T11:19:58.979Z,26.70
2019-04-30T11:22:31.309Z,26.70
2019-04-30T11:25:03.018Z,27.00
2019-04-30T11:27:34.877Z,27.10
2019-04-30T11:30:18.483Z,27.10
2019-04-30T11:32:40.087Z,27.10
2019-04-30T11:35:10.080Z,27.20
2019-04-30T11:37:40.962Z,27.20
2019-04-30T11:40:17.083Z,27.50
2019-04-30T11:42:46.532Z,27.80
2019-04-30T11:45:19.501Z,28.00
2019-04-30T11:47:53.617Z,28.20
2019-04-30T11:50:22.363Z,28.40
2019-04-30T11:52:52.289Z,28.70
2019-04-30T11:55:22.324Z,28.70
2019-04-30T11:57:52.142Z,28.80
2019-04-30T12:00:25.869Z,29.00
2019-04-30T12:02:55.706Z,29.10
2019-04-30T12:05:25.556Z,29.20
2019-04-30T12:08:00.114Z,29.20
2019-04-30T12:10:41.445Z,29.20
2019-04-30T12:13:26.007Z,29.30
2019-04-30T12:15:56.387Z,29.50
2019-04-30T12:18:26.289Z,29.70
2019-04-30T12:20:57.678Z,29.80
2019-04-30T12:23:27.739Z,30.10
2019-04-30T12:26:00.994Z,30.40
2019-04-30T12:28:31.340Z,30.40
2019-04-30T12:31:02.428Z,30.40
2019-04-30T12:33:32.376Z,30.50
2019-04-30T12:36:06.299Z,30.60
2019-04-30T12:38:36.300Z,30.70
2019-04-30T12:41:06.860Z,30.50
2019-04-30T12:43:36.719Z,30.20
2019-04-30T12:46:08.953Z,29.90
2019-04-30T12:48:43.385Z,29.70
2019-04-30T12:51:14.793Z,29.60
2019-04-30T12:53:52.161Z,29.80
2019-04-30T12:56:29.307Z,30.10
2019-04-30T12:59:05.278Z,30.40
2019-04-30T13:01:36.858Z,30.90
2019-04-30T13:04:06.859Z,31.30
2019-04-30T13:06:37.046Z,31.60
2019-04-30T13:09:10.957Z,31.90
2019-04-30T13:11:41.316Z,32.10
2019-04-30T13:14:12.174Z,32.30
2019-04-30T13:16:42.245Z,32.40
2019-04-30T13:19:12.083Z,32.50
2019-04-30T13:21:41.915Z,32.50
2019-04-30T13:24:11.796Z,32.40
2019-04-30T13:26:41.633Z,32.10
2019-04-30T13:29:15.535Z,31.70
2019-04-30T13:31:45.826Z,31.40
2019-04-30T13:34:33.682Z,31.30
2019-04-30T13:37:03.540Z,31.20
2019-04-30T13:39:49.424Z,31.00
2019-04-30T13:42:20.433Z,30.60
2019-04-30T13:44:49.465Z,30.30
2019-04-30T13:47:19.326Z,30.40
2019-04-30T13:49:49.705Z,30.70
2019-04-30T13:52:20.531Z,30.90
2019-04-30T13:54:56.683Z,31.10
2019-04-30T13:57:28.254Z,31.10
2019-04-30T13:59:59.539Z,31.30
2019-04-30T14:02:31.961Z,31.80
2019-04-30T14:05:09.078Z,31.90
2019-04-30T14:07:41.338Z,31.60
2019-04-30T14:10:11.149Z,31.30
2019-04-30T14:12:42.591Z,31.30
2019-04-30T14:15:12.987Z,31.40
2019-04-30T14:17:44.087Z,31.40
2019-04-30T14:20:14.177Z,31.50
2019-04-30T14:22:44.014Z,31.40
2019-04-30T14:25:13.988Z,31.50
2019-04-30T14:27:51.772Z,31.70
2019-04-30T14:30:16.849Z,31.90
2019-04-30T14:32:50.593Z,32.10
2019-04-30T14:35:18.752Z,32.30
2019-04-30T14:37:49.614Z,32.70
2019-04-30T14:40:20.494Z,33.20
2019-04-30T14:42:54.655Z,33.40
2019-04-30T14:45:27.477Z,33.40
2019-04-30T14:48:08.000Z,33.60
2019-04-30T14:50:38.642Z,33.80
2019-04-30T14:53:22.300Z,33.90
2019-04-30T14:56:11.644Z,34.00
2019-04-30T14:58:51.286Z,34.20
2019-04-30T15:01:29.337Z,34.20
2019-04-30T15:04:07.982Z,34.40
2019-04-30T15:06:41.250Z,34.30
2019-04-30T15:09:14.100Z,34.20
2019-04-30T15:11:44.540Z,34.10
2019-04-30T15:14:14.411Z,34.20
2019-04-30T15:16:45.781Z,34.20
2019-04-30T15:19:16.788Z,34.10
2019-04-30T15:21:49.294Z,34.10
2019-04-30T15:24:24.975Z,34.10
2019-04-30T15:26:57.602Z,34.10
2019-04-30T15:29:26.312Z,34.10
2019-04-30T15:31:56.135Z,34.20
2019-04-30T15:34:29.336Z,34.40
2019-04-30T15:36:59.293Z,34.60
2019-04-30T15:39:30.961Z,34.60
2019-04-30T15:42:11.552Z,34.40
2019-04-30T15:44:45.730Z,34.30
2019-04-30T15:47:15.365Z,34.20
2019-04-30T15:49:45.288Z,34.00
2019-04-30T15:52:15.116Z,33.80
2019-04-30T15:54:44.898Z,33.40
2019-04-30T15:57:14.721Z,33.20
2019-04-30T15:59:44.547Z,32.90
2019-04-30T16:02:20.196Z,32.70
2019-04-30T16:04:57.304Z,32.50
2019-04-30T16:07:31.006Z,32.10
2019-04-30T16:10:05.025Z,31.70
2019-04-30T16:12:45.912Z,31.30
2019-04-30T16:15:18.493Z,31.10
2019-04-30T16:17:49.894Z,31.00
2019-04-30T16:20:19.782Z,30.80
2019-04-30T16:22:50.172Z,30.60
2019-04-30T16:25:20.004Z,30.10
2019-04-30T16:27:50.566Z,29.50
2019-04-30T16:30:23.928Z,28.60
2019-04-30T16:32:53.765Z,27.30
2019-04-30T16:35:25.063Z,25.80
2019-04-30T16:37:56.742Z,24.50
2019-04-30T16:40:28.852Z,23.30
2019-04-30T16:43:02.601Z,22.30
2019-04-30T16:45:33.732Z,21.30
2019-04-30T16:48:04.165Z,20.50
2019-04-30T16:50:35.227Z,19.70
2019-04-30T16:53:06.820Z,19.10
2019-04-30T16:55:37.619Z,18.50
2019-04-30T16:58:10.609Z,18.00
2019-04-30T17:00:40.913Z,17.50
2019-04-30T17:03:13.256Z,17.10
2019-04-30T17:05:46.328Z,16.70
2019-04-30T17:08:31.428Z,16.40
2019-04-30T17:11:11.783Z,16.10
2019-04-30T17:13:42.860Z,15.70
2019-04-30T17:16:14.235Z,15.50
2019-04-30T17:18:49.483Z,15.20
2019-04-30T17:21:19.799Z,15.00
2019-04-30T17:23:50.973Z,14.70
2019-04-30T17:26:23.597Z,14.40
2019-04-30T17:28:57.157Z,14.20
2019-04-30T17:31:29.776Z,14.00
2019-04-30T17:34:00.546Z,13.90
2019-04-30T17:36:30.516Z,13.70
2019-04-30T17:39:10.097Z,13.60
2019-04-30T17:41:41.985Z,13.40
2019-04-30T17:44:13.406Z,13.30
2019-04-30T17:46:46.122Z,13.20
2019-04-30T17:49:18.922Z,13.10
2019-04-30T17:51:55.815Z,13.00
2019-04-30T17:54:31.055Z,12.90
2019-04-30T17:57:03.431Z,12.80
2019-04-30T17:59:33.323Z,12.80
2019-04-30T18:02:05.313Z,12.70
2019-04-30T18:04:35.137Z,12.60
2019-04-30T18:07:05.163Z,12.50
2019-04-30T18:09:42.099Z,12.40
2019-04-30T18:12:14.159Z,12.30
2019-04-30T18:14:44.069Z,12.20
2019-04-30T18:17:19.059Z,12.10
2019-04-30T18:19:55.698Z,12.00
2019-04-30T18:22:43.407Z,11.90
2019-04-30T18:25:15.469Z,11.90
2019-04-30T18:27:59.605Z,11.80
2019-04-30T18:30:31.710Z,11.70
2019-04-30T18:33:01.559Z,11.70
2019-04-30T18:35:33.527Z,11.60
2019-04-30T18:38:03.396Z,11.70
2019-04-30T18:40:35.011Z,11.60
2019-04-30T18:43:07.198Z,11.60
2019-04-30T18:45:39.524Z,11.60
2019-04-30T18:48:12.352Z,11.50
2019-04-30T18:50:46.687Z,11.50
2019-04-30T18:53:23.855Z,11.40
2019-04-30T18:55:54.177Z,11.40
2019-04-30T18:58:36.515Z,11.40
2019-04-30T19:00:56.826Z,11.40
2019-04-30T19:03:26.679Z,11.40
2019-04-30T19:05:58.678Z,11.40
2019-04-30T19:08:39.476Z,11.30
2019-04-30T19:11:18.846Z,11.30
2019-04-30T19:13:51.172Z,11.20
2019-04-30T19:16:40.015Z,11.10
2019-04-30T19:19:19.620Z,11.10
2019-04-30T19:21:49.510Z,11.00
2019-04-30T19:24:20.854Z,10.90
2019-04-30T19:26:51.991Z,10.80
2019-04-30T19:29:23.298Z,10.80
2019-04-30T19:31:53.664Z,10.70
2019-04-30T19:34:23.484Z,10.70
2019-04-30T19:36:54.788Z,10.60
2019-04-30T19:39:26.156Z,10.60
2019-04-30T19:41:56.116Z,10.60
2019-04-30T19:44:26.240Z,10.50
2019-04-30T19:46:58.563Z,10.50
2019-04-30T19:49:28.732Z,10.50
2019-04-30T19:52:08.595Z,10.40
2019-04-30T19:54:39.572Z,10.40
2019-04-30T19:57:19.022Z,10.40
2019-04-30T19:59:51.217Z,10.40
2019-04-30T20:02:21.839Z,10.30
2019-04-30T20:04:52.446Z,10.30
2019-04-30T20:07:22.265Z,10.30
2019-04-30T20:10:00.604Z,10.40
2019-04-30T20:12:24.558Z,10.30
2019-04-30T20:14:54.825Z,10.30
2019-04-30T20:17:26.876Z,10.30
2019-04-30T20:20:00.412Z,10.30
2019-04-30T20:22:30.238Z,10.30
2019-04-30T20:25:01.566Z,10.20
2019-04-30T20:27:31.512Z,10.20
2019-04-30T20:30:13.519Z,10.20
2019-04-30T20:32:45.048Z,10.10
2019-04-30T20:35:26.108Z,10.10
2019-04-30T20:38:16.842Z,10.00
2019-04-30T20:40:59.672Z,10.00
2019-04-30T20:43:19.975Z,9.90
2019-04-30T20:45:51.670Z,9.90
2019-04-30T20:48:23.008Z,9.80
2019-04-30T20:50:55.011Z,9.70
2019-04-30T20:53:24.858Z,9.60
2019-04-30T20:55:55.563Z,9.60
2019-04-30T20:58:25.399Z,9.50
2019-04-30T21:01:03.978Z,9.40
2019-04-30T21:03:29.545Z,9.30
2019-04-30T21:06:00.970Z,9.20
2019-04-30T21:08:31.845Z,9.10
2019-04-30T21:11:02.291Z,9.00
2019-04-30T21:13:32.691Z,8.90
2019-04-30T21:16:02.664Z,8.80
2019-04-30T21:18:32.637Z,8.70
2019-04-30T21:21:02.481Z,8.70
2019-04-30T21:23:32.357Z,8.70
2019-04-30T21:26:03.721Z,8.60
2019-04-30T21:28:35.099Z,8.60
2019-04-30T21:31:23.817Z,8.60
2019-04-30T21:33:58.803Z,8.60
2019-04-30T21:36:29.314Z,8.50
2019-04-30T21:39:03.617Z,8.50
2019-04-30T21:41:42.219Z,8.50
2019-04-30T21:44:12.509Z,8.40
2019-04-30T21:46:42.385Z,8.40
2019-04-30T21:49:14.561Z,8.30
2019-04-30T21:51:46.325Z,8.20
2019-04-30T21:54:17.138Z,8.20
2019-04-30T21:56:48.663Z,8.10
2019-04-30T21:59:24.522Z,8.10
2019-04-30T22:01:51.410Z,8.00
2019-04-30T22:04:21.841Z,7.90
2019-04-30T22:06:51.653Z,7.80
2019-04-30T22:09:23.298Z,7.80
2019-04-30T22:11:53.301Z,7.70
2019-04-30T22:14:25.120Z,7.70
2019-04-30T22:16:55.073Z,7.70
2019-04-30T22:19:25.085Z,7.60
2019-04-30T22:21:54.926Z,7.60
2019-04-30T22:24:28.330Z,7.50
2019-04-30T22:27:01.886Z,7.40
2019-04-30T22:29:39.256Z,7.30
2019-04-30T22:32:03.189Z,7.30
2019-04-30T22:34:34.380Z,7.20
2019-04-30T22:37:04.218Z,7.10
2019-04-30T22:39:39.540Z,7.10
2019-04-30T22:42:29.919Z,7.00
2019-04-30T22:45:01.173Z,6.90
2019-04-30T22:47:32.470Z,6.90
2019-04-30T22:50:03.556Z,6.80
2019-04-30T22:52:33.451Z,6.80
2019-04-30T22:55:04.404Z,6.70
2019-04-30T22:57:34.214Z,6.70
2019-04-30T23:00:09.735Z,6.60
2019-04-30T23:02:42.694Z,6.50
2019-04-30T23:05:14.148Z,6.50
2019-04-30T23:07:43.940Z,6.40
2019-04-30T23:10:18.950Z,6.40
2019-04-30T23:12:49.294Z,6.30
2019-04-30T23:15:20.094Z,6.20
2019-04-30T23:17:52.328Z,6.10
2019-04-30T23:20:23.717Z,6.00
2019-04-30T23:22:54.176Z,5.90
2019-04-30T23:25:25.500Z,5.80
2019-04-30T23:27:58.409Z,5.80
2019-04-30T23:30:29.340Z,5.70
2019-04-30T23:32:59.159Z,5.70
2019-04-30T23:35:29.147Z,5.60
2019-04-30T23:37:58.916Z,5.60
2019-04-30T23:40:32.706Z,5.60
2019-04-30T23:43:03.152Z,5.50
2019-04-30T23:45:33.180Z,5.50
2019-04-30T23:48:05.689Z,5.50
2019-04-30T23:50:35.510Z,5.40
2019-04-30T23:53:05.326Z,5.40
2019-04-30T23:55:35.179Z,5.40
2019-04-30T23:58:07.000Z,5.40
